sensor_id;sensor_type;location;lat;lon;timestamp;pressure;altitude;pressure_sealevel;temperature
14851;BMP180;7517;48.400;11.770;2022-11-15T00:00:46;96345.00;;;8.40
14851;BMP180;7517;48.400;11.770;2022-11-15T00:03:14;96343.00;;;8.40
14851;BMP180;7517;48.400;11.770;2022-11-15T00:05:42;96344.00;;;8.40
14851;BMP180;7517;48.400;11.770;2022-11-15T00:08:10;96343.00;;;8.40
14851;BMP180;7517;48.400;11.770;2022-11-15T00:10:38;96336.00;;;8.40
14851;BMP180;7517;48.400;11.770;2022-11-15T00:13:06;96332.00;;;8.40
14851;BMP180;7517;48.400;11.770;2022-11-15T00:15:35;96334.00;;;8.30
14851;BMP180;7517;48.400;11.770;2022-11-15T00:18:03;96338.00;;;8.30
14851;BMP180;7517;48.400;11.770;2022-11-15T00:20:31;96337.00;;;8.30
14851;BMP180;7517;48.400;11.770;2022-11-15T00:23:00;96339.00;;;8.30
14851;BMP180;7517;48.400;11.770;2022-11-15T00:25:27;96330.00;;;8.30
14851;BMP180;7517;48.400;11.770;2022-11-15T00:27:57;96331.00;;;8.20
14851;BMP180;7517;48.400;11.770;2022-11-15T00:30:26;96327.00;;;8.20
14851;BMP180;7517;48.400;11.770;2022-11-15T00:32:53;96329.00;;;8.20
14851;BMP180;7517;48.400;11.770;2022-11-15T00:35:22;96322.00;;;8.20
14851;BMP180;7517;48.400;11.770;2022-11-15T00:37:49;96331.00;;;8.20
14851;BMP180;7517;48.400;11.770;2022-11-15T00:40:16;96330.00;;;8.20
14851;BMP180;7517;48.400;11.770;2022-11-15T00:42:44;96331.00;;;8.20
14851;BMP180;7517;48.400;11.770;2022-11-15T00:45:12;96328.00;;;8.20
14851;BMP180;7517;48.400;11.770;2022-11-15T00:47:39;96325.00;;;8.20
14851;BMP180;7517;48.400;11.770;2022-11-15T00:50:07;96318.00;;;8.20
14851;BMP180;7517;48.400;11.770;2022-11-15T00:52:34;96315.00;;;8.20
14851;BMP180;7517;48.400;11.770;2022-11-15T00:55:02;96313.00;;;8.20
14851;BMP180;7517;48.400;11.770;2022-11-15T00:57:29;96307.00;;;8.20
14851;BMP180;7517;48.400;11.770;2022-11-15T01:00:00;96303.00;;;8.20
14851;BMP180;7517;48.400;11.770;2022-11-15T01:02:28;96303.00;;;8.20
14851;BMP180;7517;48.400;11.770;2022-11-15T01:04:55;96312.00;;;8.20
14851;BMP180;7517;48.400;11.770;2022-11-15T01:07:22;96295.00;;;8.20
14851;BMP180;7517;48.400;11.770;2022-11-15T01:09:50;96296.00;;;8.20
14851;BMP180;7517;48.400;11.770;2022-11-15T01:12:17;96290.00;;;8.10
14851;BMP180;7517;48.400;11.770;2022-11-15T01:14:44;96287.00;;;8.10
14851;BMP180;7517;48.400;11.770;2022-11-15T01:17:11;96288.00;;;8.10
14851;BMP180;7517;48.400;11.770;2022-11-15T01:19:40;96286.00;;;8.10
14851;BMP180;7517;48.400;11.770;2022-11-15T01:22:07;96287.00;;;8.10
14851;BMP180;7517;48.400;11.770;2022-11-15T01:24:34;96284.00;;;8.00
14851;BMP180;7517;48.400;11.770;2022-11-15T01:27:01;96280.00;;;8.00
14851;BMP180;7517;48.400;11.770;2022-11-15T01:29:29;96284.00;;;8.00
14851;BMP180;7517;48.400;11.770;2022-11-15T01:31:56;96273.00;;;8.00
14851;BMP180;7517;48.400;11.770;2022-11-15T01:34:23;96266.00;;;8.10
14851;BMP180;7517;48.400;11.770;2022-11-15T01:36:52;96269.00;;;8.10
14851;BMP180;7517;48.400;11.770;2022-11-15T01:39:19;96266.00;;;8.10
14851;BMP180;7517;48.400;11.770;2022-11-15T01:41:46;96259.00;;;8.00
14851;BMP180;7517;48.400;11.770;2022-11-15T01:44:40;96260.00;;;8.00
14851;BMP180;7517;48.400;11.770;2022-11-15T01:47:12;96252.00;;;8.00
14851;BMP180;7517;48.400;11.770;2022-11-15T01:49:54;96244.00;;;8.00
14851;BMP180;7517;48.400;11.770;2022-11-15T01:52:26;96250.00;;;8.00
14851;BMP180;7517;48.400;11.770;2022-11-15T01:55:03;96246.00;;;8.00
14851;BMP180;7517;48.400;11.770;2022-11-15T01:57:32;96241.00;;;8.00
14851;BMP180;7517;48.400;11.770;2022-11-15T02:00:01;96238.00;;;8.00
14851;BMP180;7517;48.400;11.770;2022-11-15T02:02:30;96236.00;;;8.00
14851;BMP180;7517;48.400;11.770;2022-11-15T02:04:58;96241.00;;;8.00
14851;BMP180;7517;48.400;11.770;2022-11-15T02:07:28;96237.00;;;8.00
14851;BMP180;7517;48.400;11.770;2022-11-15T02:10:02;96232.00;;;8.00
14851;BMP180;7517;48.400;11.770;2022-11-15T02:12:31;96223.00;;;8.00
14851;BMP180;7517;48.400;11.770;2022-11-15T02:14:59;96220.00;;;8.00
14851;BMP180;7517;48.400;11.770;2022-11-15T02:17:42;96232.00;;;7.90
14851;BMP180;7517;48.400;11.770;2022-11-15T02:20:47;96227.00;;;7.90
14851;BMP180;7517;48.400;11.770;2022-11-15T02:30:42;96213.00;;;7.80
14851;BMP180;7517;48.400;11.770;2022-11-15T02:33:26;96206.00;;;7.80
14851;BMP180;7517;48.400;11.770;2022-11-15T02:36:00;96199.00;;;7.70
14851;BMP180;7517;48.400;11.770;2022-11-15T02:38:39;96198.00;;;7.70
14851;BMP180;7517;48.400;11.770;2022-11-15T02:41:13;96190.00;;;7.70
14851;BMP180;7517;48.400;11.770;2022-11-15T02:43:47;96196.00;;;7.70
14851;BMP180;7517;48.400;11.770;2022-11-15T02:46:34;96204.00;;;7.60
14851;BMP180;7517;48.400;11.770;2022-11-15T02:49:19;96193.00;;;7.60
14851;BMP180;7517;48.400;11.770;2022-11-15T02:51:49;96192.00;;;7.60
14851;BMP180;7517;48.400;11.770;2022-11-15T02:54:23;96189.00;;;7.60
14851;BMP180;7517;48.400;11.770;2022-11-15T02:56:54;96182.00;;;7.60
14851;BMP180;7517;48.400;11.770;2022-11-15T03:00:10;96184.00;;;7.60
14851;BMP180;7517;48.400;11.770;2022-11-15T03:03:00;96184.00;;;7.60
14851;BMP180;7517;48.400;11.770;2022-11-15T03:05:42;96181.00;;;7.60
14851;BMP180;7517;48.400;11.770;2022-11-15T03:08:23;96176.00;;;7.50
14851;BMP180;7517;48.400;11.770;2022-11-15T03:11:03;96173.00;;;7.50
14851;BMP180;7517;48.400;11.770;2022-11-15T03:13:42;96178.00;;;7.50
14851;BMP180;7517;48.400;11.770;2022-11-15T03:16:19;96183.00;;;7.50
14851;BMP180;7517;48.400;11.770;2022-11-15T03:18:55;96177.00;;;7.50
14851;BMP180;7517;48.400;11.770;2022-11-15T03:21:25;96175.00;;;7.50
14851;BMP180;7517;48.400;11.770;2022-11-15T03:23:55;96169.00;;;7.50
14851;BMP180;7517;48.400;11.770;2022-11-15T03:26:25;96173.00;;;7.50
14851;BMP180;7517;48.400;11.770;2022-11-15T03:28:57;96166.00;;;7.50
14851;BMP180;7517;48.400;11.770;2022-11-15T03:31:31;96171.00;;;7.50
14851;BMP180;7517;48.400;11.770;2022-11-15T03:34:28;96165.00;;;7.50
14851;BMP180;7517;48.400;11.770;2022-11-15T03:36:56;96164.00;;;7.40
14851;BMP180;7517;48.400;11.770;2022-11-15T03:39:25;96174.00;;;7.40
14851;BMP180;7517;48.400;11.770;2022-11-15T03:42:06;96165.00;;;7.40
14851;BMP180;7517;48.400;11.770;2022-11-15T03:44:42;96161.00;;;7.40
14851;BMP180;7517;48.400;11.770;2022-11-15T03:47:17;96162.00;;;7.40
14851;BMP180;7517;48.400;11.770;2022-11-15T03:49:53;96164.00;;;7.40
14851;BMP180;7517;48.400;11.770;2022-11-15T03:52:22;96163.00;;;7.40
14851;BMP180;7517;48.400;11.770;2022-11-15T03:54:53;96166.00;;;7.40
14851;BMP180;7517;48.400;11.770;2022-11-15T03:57:21;96159.00;;;7.40
14851;BMP180;7517;48.400;11.770;2022-11-15T03:59:48;96159.00;;;7.40
14851;BMP180;7517;48.400;11.770;2022-11-15T04:02:16;96160.00;;;7.40
14851;BMP180;7517;48.400;11.770;2022-11-15T04:04:43;96158.00;;;7.30
14851;BMP180;7517;48.400;11.770;2022-11-15T04:07:12;96154.00;;;7.30
14851;BMP180;7517;48.400;11.770;2022-11-15T04:09:39;96156.00;;;7.30
14851;BMP180;7517;48.400;11.770;2022-11-15T04:12:20;96154.00;;;7.30
14851;BMP180;7517;48.400;11.770;2022-11-15T04:14:57;96146.00;;;7.30
14851;BMP180;7517;48.400;11.770;2022-11-15T04:17:35;96145.00;;;7.30
14851;BMP180;7517;48.400;11.770;2022-11-15T04:20:03;96141.00;;;7.30
14851;BMP180;7517;48.400;11.770;2022-11-15T04:22:53;96136.00;;;7.30
14851;BMP180;7517;48.400;11.770;2022-11-15T04:25:38;96128.00;;;7.30
14851;BMP180;7517;48.400;11.770;2022-11-15T04:28:05;96134.00;;;7.30
14851;BMP180;7517;48.400;11.770;2022-11-15T04:30:32;96136.00;;;7.30
14851;BMP180;7517;48.400;11.770;2022-11-15T04:33:00;96136.00;;;7.30
14851;BMP180;7517;48.400;11.770;2022-11-15T04:35:27;96137.00;;;7.30
14851;BMP180;7517;48.400;11.770;2022-11-15T04:37:56;96132.00;;;7.30
14851;BMP180;7517;48.400;11.770;2022-11-15T04:40:23;96125.00;;;7.30
14851;BMP180;7517;48.400;11.770;2022-11-15T04:42:51;96127.00;;;7.30
14851;BMP180;7517;48.400;11.770;2022-11-15T04:45:18;96117.00;;;7.30
14851;BMP180;7517;48.400;11.770;2022-11-15T04:47:46;96107.00;;;7.30
14851;BMP180;7517;48.400;11.770;2022-11-15T04:50:15;96113.00;;;7.30
14851;BMP180;7517;48.400;11.770;2022-11-15T04:52:46;96107.00;;;7.30
14851;BMP180;7517;48.400;11.770;2022-11-15T04:55:18;96104.00;;;7.30
14851;BMP180;7517;48.400;11.770;2022-11-15T04:57:45;96108.00;;;7.30
14851;BMP180;7517;48.400;11.770;2022-11-15T05:00:16;96100.00;;;7.30
14851;BMP180;7517;48.400;11.770;2022-11-15T05:02:43;96109.00;;;7.30
14851;BMP180;7517;48.400;11.770;2022-11-15T05:05:28;96108.00;;;7.30
14851;BMP180;7517;48.400;11.770;2022-11-15T05:07:55;96107.00;;;7.30
14851;BMP180;7517;48.400;11.770;2022-11-15T05:10:23;96107.00;;;7.20
14851;BMP180;7517;48.400;11.770;2022-11-15T05:12:51;96109.00;;;7.20
14851;BMP180;7517;48.400;11.770;2022-11-15T05:15:18;96117.00;;;7.20
14851;BMP180;7517;48.400;11.770;2022-11-15T05:17:45;96114.00;;;7.20
14851;BMP180;7517;48.400;11.770;2022-11-15T05:20:13;96116.00;;;7.20
14851;BMP180;7517;48.400;11.770;2022-11-15T05:22:40;96121.00;;;7.20
14851;BMP180;7517;48.400;11.770;2022-11-15T05:25:10;96114.00;;;7.10
14851;BMP180;7517;48.400;11.770;2022-11-15T05:27:39;96109.00;;;7.10
14851;BMP180;7517;48.400;11.770;2022-11-15T05:30:07;96109.00;;;7.10
14851;BMP180;7517;48.400;11.770;2022-11-15T05:32:35;96105.00;;;7.20
14851;BMP180;7517;48.400;11.770;2022-11-15T05:35:05;96090.00;;;7.10
14851;BMP180;7517;48.400;11.770;2022-11-15T05:37:33;96099.00;;;7.10
14851;BMP180;7517;48.400;11.770;2022-11-15T05:40:01;96094.00;;;7.10
14851;BMP180;7517;48.400;11.770;2022-11-15T05:42:29;96101.00;;;7.10
14851;BMP180;7517;48.400;11.770;2022-11-15T05:45:05;96090.00;;;7.10
14851;BMP180;7517;48.400;11.770;2022-11-15T05:47:36;96087.00;;;7.10
14851;BMP180;7517;48.400;11.770;2022-11-15T05:50:06;96097.00;;;7.10
14851;BMP180;7517;48.400;11.770;2022-11-15T05:52:37;96090.00;;;7.10
14851;BMP180;7517;48.400;11.770;2022-11-15T05:55:07;96083.00;;;7.10
14851;BMP180;7517;48.400;11.770;2022-11-15T05:57:35;96085.00;;;7.10
14851;BMP180;7517;48.400;11.770;2022-11-15T06:00:06;96077.00;;;7.00
14851;BMP180;7517;48.400;11.770;2022-11-15T06:02:35;96079.00;;;7.00
14851;BMP180;7517;48.400;11.770;2022-11-15T06:05:03;96074.00;;;7.00
14851;BMP180;7517;48.400;11.770;2022-11-15T06:07:31;96075.00;;;7.00
14851;BMP180;7517;48.400;11.770;2022-11-15T06:09:58;96066.00;;;7.00
14851;BMP180;7517;48.400;11.770;2022-11-15T06:12:25;96074.00;;;7.00
14851;BMP180;7517;48.400;11.770;2022-11-15T06:14:52;96073.00;;;7.00
14851;BMP180;7517;48.400;11.770;2022-11-15T06:17:21;96077.00;;;7.00
14851;BMP180;7517;48.400;11.770;2022-11-15T06:19:48;96074.00;;;7.00
14851;BMP180;7517;48.400;11.770;2022-11-15T06:22:15;96070.00;;;7.00
14851;BMP180;7517;48.400;11.770;2022-11-15T06:24:42;96075.00;;;7.10
14851;BMP180;7517;48.400;11.770;2022-11-15T06:27:10;96067.00;;;7.10
14851;BMP180;7517;48.400;11.770;2022-11-15T06:29:38;96072.00;;;7.10
14851;BMP180;7517;48.400;11.770;2022-11-15T06:32:05;96074.00;;;7.10
14851;BMP180;7517;48.400;11.770;2022-11-15T06:34:34;96083.00;;;7.10
14851;BMP180;7517;48.400;11.770;2022-11-15T06:37:02;96090.00;;;7.10
14851;BMP180;7517;48.400;11.770;2022-11-15T06:39:29;96083.00;;;7.10
14851;BMP180;7517;48.400;11.770;2022-11-15T06:41:57;96085.00;;;7.10
14851;BMP180;7517;48.400;11.770;2022-11-15T06:44:24;96081.00;;;7.10
14851;BMP180;7517;48.400;11.770;2022-11-15T06:46:51;96078.00;;;7.10
14851;BMP180;7517;48.400;11.770;2022-11-15T06:49:18;96078.00;;;7.10
14851;BMP180;7517;48.400;11.770;2022-11-15T06:51:47;96074.00;;;7.10
14851;BMP180;7517;48.400;11.770;2022-11-15T06:54:14;96078.00;;;7.10
14851;BMP180;7517;48.400;11.770;2022-11-15T06:56:41;96067.00;;;7.10
14851;BMP180;7517;48.400;11.770;2022-11-15T06:59:08;96069.00;;;7.10
14851;BMP180;7517;48.400;11.770;2022-11-15T07:01:36;96070.00;;;7.10
14851;BMP180;7517;48.400;11.770;2022-11-15T07:04:03;96070.00;;;7.20
14851;BMP180;7517;48.400;11.770;2022-11-15T07:06:30;96071.00;;;7.20
14851;BMP180;7517;48.400;11.770;2022-11-15T07:08:59;96063.00;;;7.20
14851;BMP180;7517;48.400;11.770;2022-11-15T07:11:26;96067.00;;;7.20
14851;BMP180;7517;48.400;11.770;2022-11-15T07:13:53;96074.00;;;7.20
14851;BMP180;7517;48.400;11.770;2022-11-15T07:16:23;96065.00;;;7.20
14851;BMP180;7517;48.400;11.770;2022-11-15T07:18:50;96064.00;;;7.20
14851;BMP180;7517;48.400;11.770;2022-11-15T07:21:17;96070.00;;;7.20
14851;BMP180;7517;48.400;11.770;2022-11-15T07:23:45;96075.00;;;7.20
14851;BMP180;7517;48.400;11.770;2022-11-15T07:26:13;96080.00;;;7.30
14851;BMP180;7517;48.400;11.770;2022-11-15T07:28:41;96072.00;;;7.30
14851;BMP180;7517;48.400;11.770;2022-11-15T07:31:09;96067.00;;;7.30
14851;BMP180;7517;48.400;11.770;2022-11-15T07:33:36;96068.00;;;7.40
14851;BMP180;7517;48.400;11.770;2022-11-15T07:36:06;96066.00;;;7.40
14851;BMP180;7517;48.400;11.770;2022-11-15T07:38:35;96061.00;;;7.40
14851;BMP180;7517;48.400;11.770;2022-11-15T07:41:05;96065.00;;;7.50
14851;BMP180;7517;48.400;11.770;2022-11-15T07:43:34;96065.00;;;7.50
14851;BMP180;7517;48.400;11.770;2022-11-15T07:46:06;96068.00;;;7.60
14851;BMP180;7517;48.400;11.770;2022-11-15T13:41:18;95754.00;;;16.70
14851;BMP180;7517;48.400;11.770;2022-11-15T13:43:47;95750.00;;;16.80
14851;BMP180;7517;48.400;11.770;2022-11-15T13:46:19;95739.00;;;16.80
14851;BMP180;7517;48.400;11.770;2022-11-15T13:48:52;95738.00;;;16.80
14851;BMP180;7517;48.400;11.770;2022-11-15T13:51:27;95737.00;;;16.90
14851;BMP180;7517;48.400;11.770;2022-11-15T13:54:01;95741.00;;;16.90
14851;BMP180;7517;48.400;11.770;2022-11-15T13:56:32;95741.00;;;16.90
14851;BMP180;7517;48.400;11.770;2022-11-15T13:59:00;95745.00;;;16.90
14851;BMP180;7517;48.400;11.770;2022-11-15T14:01:31;95745.00;;;16.90
14851;BMP180;7517;48.400;11.770;2022-11-15T14:04:00;95739.00;;;16.90
14851;BMP180;7517;48.400;11.770;2022-11-15T14:06:30;95737.00;;;17.00
14851;BMP180;7517;48.400;11.770;2022-11-15T14:09:15;95735.00;;;17.00
14851;BMP180;7517;48.400;11.770;2022-11-15T14:11:54;95737.00;;;17.00
14851;BMP180;7517;48.400;11.770;2022-11-15T14:14:23;95737.00;;;17.00
14851;BMP180;7517;48.400;11.770;2022-11-15T14:16:53;95736.00;;;17.00
14851;BMP180;7517;48.400;11.770;2022-11-15T14:19:39;95737.00;;;17.00
14851;BMP180;7517;48.400;11.770;2022-11-15T14:22:28;95735.00;;;16.90
14851;BMP180;7517;48.400;11.770;2022-11-15T14:25:15;95734.00;;;16.90
14851;BMP180;7517;48.400;11.770;2022-11-15T14:28:12;95733.00;;;16.90
14851;BMP180;7517;48.400;11.770;2022-11-15T14:30:41;95731.00;;;16.90
14851;BMP180;7517;48.400;11.770;2022-11-15T14:33:21;95726.00;;;16.90
14851;BMP180;7517;48.400;11.770;2022-11-15T14:35:49;95722.00;;;16.80
14851;BMP180;7517;48.400;11.770;2022-11-15T14:38:16;95727.00;;;16.80
14851;BMP180;7517;48.400;11.770;2022-11-15T14:40:44;95722.00;;;16.80
14851;BMP180;7517;48.400;11.770;2022-11-15T14:43:13;95733.00;;;16.80
14851;BMP180;7517;48.400;11.770;2022-11-15T14:45:41;95733.00;;;16.70
14851;BMP180;7517;48.400;11.770;2022-11-15T14:48:08;95728.00;;;16.70
14851;BMP180;7517;48.400;11.770;2022-11-15T14:50:36;95727.00;;;16.70
14851;BMP180;7517;48.400;11.770;2022-11-15T14:53:04;95718.00;;;16.60
14851;BMP180;7517;48.400;11.770;2022-11-15T14:55:34;95715.00;;;16.60
14851;BMP180;7517;48.400;11.770;2022-11-15T14:58:03;95702.00;;;16.50
14851;BMP180;7517;48.400;11.770;2022-11-15T15:00:32;95705.00;;;16.50
14851;BMP180;7517;48.400;11.770;2022-11-15T15:03:00;95707.00;;;16.40
14851;BMP180;7517;48.400;11.770;2022-11-15T15:05:32;95709.00;;;16.40
14851;BMP180;7517;48.400;11.770;2022-11-15T15:08:00;95710.00;;;16.30
14851;BMP180;7517;48.400;11.770;2022-11-15T15:10:32;95710.00;;;16.20
14851;BMP180;7517;48.400;11.770;2022-11-15T15:13:00;95707.00;;;16.20
14851;BMP180;7517;48.400;11.770;2022-11-15T15:15:34;95708.00;;;16.10
14851;BMP180;7517;48.400;11.770;2022-11-15T15:18:02;95700.00;;;16.00
14851;BMP180;7517;48.400;11.770;2022-11-15T15:20:31;95702.00;;;16.00
14851;BMP180;7517;48.400;11.770;2022-11-15T15:22:58;95694.00;;;15.90
14851;BMP180;7517;48.400;11.770;2022-11-15T15:25:28;95695.00;;;15.80
14851;BMP180;7517;48.400;11.770;2022-11-15T15:27:58;95693.00;;;15.70
14851;BMP180;7517;48.400;11.770;2022-11-15T15:30:27;95680.00;;;15.60
14851;BMP180;7517;48.400;11.770;2022-11-15T15:32:56;95683.00;;;15.50
14851;BMP180;7517;48.400;11.770;2022-11-15T15:35:28;95686.00;;;15.40
14851;BMP180;7517;48.400;11.770;2022-11-15T15:37:56;95684.00;;;15.30
14851;BMP180;7517;48.400;11.770;2022-11-15T15:40:25;95688.00;;;15.30
14851;BMP180;7517;48.400;11.770;2022-11-15T15:42:54;95685.00;;;15.20
14851;BMP180;7517;48.400;11.770;2022-11-15T15:45:22;95692.00;;;15.10
14851;BMP180;7517;48.400;11.770;2022-11-15T15:47:49;95697.00;;;15.00
14851;BMP180;7517;48.400;11.770;2022-11-15T15:50:23;95691.00;;;14.90
14851;BMP180;7517;48.400;11.770;2022-11-15T15:52:53;95686.00;;;14.90
14851;BMP180;7517;48.400;11.770;2022-11-15T15:55:21;95681.00;;;14.80
14851;BMP180;7517;48.400;11.770;2022-11-15T15:57:49;95681.00;;;14.70
14851;BMP180;7517;48.400;11.770;2022-11-15T16:00:19;95684.00;;;14.60
14851;BMP180;7517;48.400;11.770;2022-11-15T16:02:47;95681.00;;;14.60
14851;BMP180;7517;48.400;11.770;2022-11-15T16:05:14;95686.00;;;14.50
14851;BMP180;7517;48.400;11.770;2022-11-15T16:07:43;95678.00;;;14.50
14851;BMP180;7517;48.400;11.770;2022-11-15T16:10:20;95685.00;;;14.40
14851;BMP180;7517;48.400;11.770;2022-11-15T16:12:48;95677.00;;;14.40
14851;BMP180;7517;48.400;11.770;2022-11-15T16:15:16;95677.00;;;14.30
14851;BMP180;7517;48.400;11.770;2022-11-15T16:17:49;95676.00;;;14.20
14851;BMP180;7517;48.400;11.770;2022-11-15T16:20:34;95681.00;;;14.10
14851;BMP180;7517;48.400;11.770;2022-11-15T16:23:05;95681.00;;;14.00
14851;BMP180;7517;48.400;11.770;2022-11-15T16:25:38;95661.00;;;14.00
14851;BMP180;7517;48.400;11.770;2022-11-15T16:28:18;95657.00;;;13.90
14851;BMP180;7517;48.400;11.770;2022-11-15T16:30:46;95657.00;;;13.80
14851;BMP180;7517;48.400;11.770;2022-11-15T16:33:13;95656.00;;;13.80
14851;BMP180;7517;48.400;11.770;2022-11-15T16:35:40;95655.00;;;13.70
14851;BMP180;7517;48.400;11.770;2022-11-15T16:38:15;95648.00;;;13.70
14851;BMP180;7517;48.400;11.770;2022-11-15T16:40:42;95647.00;;;13.60
14851;BMP180;7517;48.400;11.770;2022-11-15T16:43:10;95646.00;;;13.60
14851;BMP180;7517;48.400;11.770;2022-11-15T16:45:38;95638.00;;;13.50
14851;BMP180;7517;48.400;11.770;2022-11-15T16:48:05;95646.00;;;13.50
14851;BMP180;7517;48.400;11.770;2022-11-15T16:50:34;95641.00;;;13.40
14851;BMP180;7517;48.400;11.770;2022-11-15T16:53:06;95648.00;;;13.30
14851;BMP180;7517;48.400;11.770;2022-11-15T16:55:34;95641.00;;;13.30
14851;BMP180;7517;48.400;11.770;2022-11-15T16:58:02;95644.00;;;13.20
14851;BMP180;7517;48.400;11.770;2022-11-15T17:00:30;95644.00;;;13.10
14851;BMP180;7517;48.400;11.770;2022-11-15T17:02:57;95637.00;;;13.10
14851;BMP180;7517;48.400;11.770;2022-11-15T17:05:24;95638.00;;;13.00
14851;BMP180;7517;48.400;11.770;2022-11-15T17:07:53;95636.00;;;13.00
14851;BMP180;7517;48.400;11.770;2022-11-15T17:10:21;95635.00;;;12.90
14851;BMP180;7517;48.400;11.770;2022-11-15T17:12:51;95632.00;;;12.80
14851;BMP180;7517;48.400;11.770;2022-11-15T17:15:19;95628.00;;;12.80
14851;BMP180;7517;48.400;11.770;2022-11-15T17:17:51;95623.00;;;12.70
14851;BMP180;7517;48.400;11.770;2022-11-15T17:20:21;95623.00;;;12.70
14851;BMP180;7517;48.400;11.770;2022-11-15T17:22:48;95622.00;;;12.70
14851;BMP180;7517;48.400;11.770;2022-11-15T17:25:16;95616.00;;;12.70
14851;BMP180;7517;48.400;11.770;2022-11-15T17:27:43;95621.00;;;12.70
14851;BMP180;7517;48.400;11.770;2022-11-15T17:30:14;95615.00;;;12.70
14851;BMP180;7517;48.400;11.770;2022-11-15T17:32:43;95618.00;;;12.70
14851;BMP180;7517;48.400;11.770;2022-11-15T17:35:12;95614.00;;;12.70
14851;BMP180;7517;48.400;11.770;2022-11-15T17:37:39;95613.00;;;12.60
14851;BMP180;7517;48.400;11.770;2022-11-15T17:40:08;95604.00;;;12.60
14851;BMP180;7517;48.400;11.770;2022-11-15T17:42:35;95599.00;;;12.60
14851;BMP180;7517;48.400;11.770;2022-11-15T17:45:07;95599.00;;;12.60
14851;BMP180;7517;48.400;11.770;2022-11-15T17:47:36;95601.00;;;12.60
14851;BMP180;7517;48.400;11.770;2022-11-15T17:50:04;95600.00;;;12.60
14851;BMP180;7517;48.400;11.770;2022-11-15T17:52:32;95590.00;;;12.60
14851;BMP180;7517;48.400;11.770;2022-11-15T17:54:59;95592.00;;;12.60
14851;BMP180;7517;48.400;11.770;2022-11-15T17:57:26;95598.00;;;12.50
14851;BMP180;7517;48.400;11.770;2022-11-15T17:59:53;95587.00;;;12.50
14851;BMP180;7517;48.400;11.770;2022-11-15T18:02:20;95588.00;;;12.50
14851;BMP180;7517;48.400;11.770;2022-11-15T18:04:49;95580.00;;;12.50
14851;BMP180;7517;48.400;11.770;2022-11-15T18:07:16;95577.00;;;12.50
14851;BMP180;7517;48.400;11.770;2022-11-15T18:09:43;95583.00;;;12.50
14851;BMP180;7517;48.400;11.770;2022-11-15T18:12:11;95580.00;;;12.40
14851;BMP180;7517;48.400;11.770;2022-11-15T18:14:38;95575.00;;;12.40
14851;BMP180;7517;48.400;11.770;2022-11-15T18:17:05;95580.00;;;12.40
14851;BMP180;7517;48.400;11.770;2022-11-15T18:19:33;95574.00;;;12.40
14851;BMP180;7517;48.400;11.770;2022-11-15T18:22:02;95579.00;;;12.30
14851;BMP180;7517;48.400;11.770;2022-11-15T18:24:34;95574.00;;;12.30
14851;BMP180;7517;48.400;11.770;2022-11-15T18:27:05;95572.00;;;12.30
14851;BMP180;7517;48.400;11.770;2022-11-15T18:29:33;95573.00;;;12.20
14851;BMP180;7517;48.400;11.770;2022-11-15T18:32:02;95573.00;;;12.20
14851;BMP180;7517;48.400;11.770;2022-11-15T18:34:36;95564.00;;;12.20
14851;BMP180;7517;48.400;11.770;2022-11-15T18:37:04;95565.00;;;12.20
14851;BMP180;7517;48.400;11.770;2022-11-15T18:39:32;95560.00;;;12.20
14851;BMP180;7517;48.400;11.770;2022-11-15T18:41:59;95563.00;;;12.20
14851;BMP180;7517;48.400;11.770;2022-11-15T18:44:27;95559.00;;;12.20
14851;BMP180;7517;48.400;11.770;2022-11-15T18:46:55;95546.00;;;12.20
14851;BMP180;7517;48.400;11.770;2022-11-15T18:49:22;95549.00;;;12.10
14851;BMP180;7517;48.400;11.770;2022-11-15T18:51:49;95548.00;;;12.10
14851;BMP180;7517;48.400;11.770;2022-11-15T18:54:18;95555.00;;;12.10
14851;BMP180;7517;48.400;11.770;2022-11-15T18:56:45;95551.00;;;12.10
14851;BMP180;7517;48.400;11.770;2022-11-15T18:59:13;95545.00;;;12.10
14851;BMP180;7517;48.400;11.770;2022-11-15T19:01:43;95550.00;;;12.00
14851;BMP180;7517;48.400;11.770;2022-11-15T19:04:14;95545.00;;;12.00
14851;BMP180;7517;48.400;11.770;2022-11-15T19:06:45;95533.00;;;12.00
14851;BMP180;7517;48.400;11.770;2022-11-15T19:09:15;95534.00;;;12.00
14851;BMP180;7517;48.400;11.770;2022-11-15T19:11:45;95531.00;;;12.00
14851;BMP180;7517;48.400;11.770;2022-11-15T19:14:15;95533.00;;;12.00
14851;BMP180;7517;48.400;11.770;2022-11-15T19:16:45;95533.00;;;11.90
14851;BMP180;7517;48.400;11.770;2022-11-15T19:19:17;95527.00;;;12.00
14851;BMP180;7517;48.400;11.770;2022-11-15T19:21:45;95517.00;;;11.90
14851;BMP180;7517;48.400;11.770;2022-11-15T19:24:12;95520.00;;;11.90
14851;BMP180;7517;48.400;11.770;2022-11-15T19:26:40;95511.00;;;11.90
14851;BMP180;7517;48.400;11.770;2022-11-15T19:29:10;95516.00;;;11.90
14851;BMP180;7517;48.400;11.770;2022-11-15T19:31:39;95513.00;;;11.90
14851;BMP180;7517;48.400;11.770;2022-11-15T19:34:07;95511.00;;;11.90
14851;BMP180;7517;48.400;11.770;2022-11-15T19:36:36;95510.00;;;11.90
14851;BMP180;7517;48.400;11.770;2022-11-15T19:39:07;95512.00;;;11.90
14851;BMP180;7517;48.400;11.770;2022-11-15T19:41:36;95514.00;;;11.80
14851;BMP180;7517;48.400;11.770;2022-11-15T19:44:04;95502.00;;;11.80
14851;BMP180;7517;48.400;11.770;2022-11-15T19:46:34;95502.00;;;11.80
14851;BMP180;7517;48.400;11.770;2022-11-15T19:49:02;95493.00;;;11.80
14851;BMP180;7517;48.400;11.770;2022-11-15T19:51:32;95500.00;;;11.80
14851;BMP180;7517;48.400;11.770;2022-11-15T19:54:01;95494.00;;;11.80
14851;BMP180;7517;48.400;11.770;2022-11-15T19:56:32;95494.00;;;11.80
14851;BMP180;7517;48.400;11.770;2022-11-15T19:59:03;95490.00;;;11.80
14851;BMP180;7517;48.400;11.770;2022-11-15T20:01:34;95497.00;;;11.80
14851;BMP180;7517;48.400;11.770;2022-11-15T20:04:04;95489.00;;;11.70
14851;BMP180;7517;48.400;11.770;2022-11-15T20:06:36;95500.00;;;11.70
14851;BMP180;7517;48.400;11.770;2022-11-15T20:09:04;95500.00;;;11.70
14851;BMP180;7517;48.400;11.770;2022-11-15T20:11:32;95492.00;;;11.70
14851;BMP180;7517;48.400;11.770;2022-11-15T20:14:02;95485.00;;;11.70
14851;BMP180;7517;48.400;11.770;2022-11-15T20:16:35;95492.00;;;11.60
14851;BMP180;7517;48.400;11.770;2022-11-15T20:19:02;95492.00;;;11.60
14851;BMP180;7517;48.400;11.770;2022-11-15T20:21:30;95493.00;;;11.60
14851;BMP180;7517;48.400;11.770;2022-11-15T20:23:57;95495.00;;;11.50
14851;BMP180;7517;48.400;11.770;2022-11-15T20:26:25;95495.00;;;11.50
14851;BMP180;7517;48.400;11.770;2022-11-15T20:28:52;95487.00;;;11.50
14851;BMP180;7517;48.400;11.770;2022-11-15T20:31:25;95477.00;;;11.50
14851;BMP180;7517;48.400;11.770;2022-11-15T20:33:54;95476.00;;;11.50